Ocean Ridge, Florida
Current Conditions -  °F | °C
As of 12:50 PM on Thursday 27 Nov 2014 (Local Time) from KBCT Reporting Station
Clear Clear  
Wind Chill: 73°   Ceiling: Unl
Heat Index: 73°   Visibility: 10mi
Dew Point: 41°   Wind: 18mph
Humidity: 31%   Direction: 340°NNW
Pressure: 30.2"   Gusts: NA
Location:  26.5249°N, 80.0659°W
Report Text: KBCT 271750Z 34016KT 10SM CLR 23/05 A3020
Loading
Personal Weather Stations






























Interactive Weather Map New forecast layout! Learn more

10-Day Weather Forecast

Advertisements
Track Severe Weather on mobile